Aeroporto :
LOGIN :

Iscrizione | Disclaimer

   EN    FR    IT 

 










Sommario :    VFR   VFR Marginale   IFR   IFR Intensivo   IFR Molto Intensivo
Visibilità : 
Base nubi : 
>= 8 km
>= 3000ft
5 / 8 km
1000 / 3000 ft
1500m / 5 km
500 / 1000 ft
800 / 1500m
200 / 500 ft
< 800m
< 200 ft
Simboli :   Temporali  Nebbia  Neve Forte  Precipitazioni Forti  Vento > 20 kt
SIGMETs :   Varie  Temporali  Ghiacco  Turbolenza  Onda orograficha  Ceneri Vulcaniche







- Altitudine del aeroporto : 302 ft
- Codice IATA : CGN


EDDK - Cologne Bonn

ULTIMO METAR :
  • 220850Z 08006KT 030V120 CAVOK 01/M05 Q1023 NOSIG

METARs OBSOLETI :
  • 220820Z 07008KT CAVOK 00/M05 Q1023 NOSIG
  • 220750Z VRB01KT CAVOK M01/M06 Q1023 NOSIG
  • 220720Z VRB01KT CAVOK M04/M07 Q1023 NOSIG
  • 220650Z 07004KT CAVOK M02/M06 Q1023 NOSIG
  • 220620Z VRB02KT CAVOK M03/M06 Q1023 NOSIG
  • 220550Z VRB01KT CAVOK M05/M07 Q1022 NOSIG

TAF TAF EDDK
Valido dal 22 a 06 ore il 23 a 12 ore UTC


220500Z 2206/2312 05004KT CAVOK
BECMG 2208/2211 07010KT
BECMG 2217/2220 06005KT
Nessun NOTAM noto per questo aeroporto.



MetMap, La meteo Aeronautica in un colpo d'occhio ! - Copyright ORBIFLY Dicembre 2007 - Disclaimer

ORBIFLY MET'MAP TEAM :

Programmazione e sviluppo : Alexandra Zaïnal
Concezione e sviluppo : Baudouin d'Aumeries
Co-Programmazione e sviluppo : Marc-Olivier Méhu
Supporto tecnico e logistico : Manuel Goepfert
Aiuto per la traduzione : Arnaldo La Scala

Contatto : metmap@orbifly.com




FONTI E CREDITI :

   NOAA